sensor_id;sensor_type;location;lat;lon;timestamp;temperature;humidity
42095;DHT22;27753;55.724;37.612;2022-12-08T00:01:16;-7.30;93.20
42095;DHT22;27753;55.724;37.612;2022-12-08T00:03:42;-7.30;93.20
42095;DHT22;27753;55.724;37.612;2022-12-08T00:12:11;-7.30;93.20
42095;DHT22;27753;55.724;37.612;2022-12-08T00:14:40;-7.20;93.20
42095;DHT22;27753;55.724;37.612;2022-12-08T00:17:08;-7.10;93.20
42095;DHT22;27753;55.724;37.612;2022-12-08T00:19:35;-7.00;93.20
42095;DHT22;27753;55.724;37.612;2022-12-08T00:22:01;-7.00;93.10
42095;DHT22;27753;55.724;37.612;2022-12-08T00:24:32;-7.00;92.90
42095;DHT22;27753;55.724;37.612;2022-12-08T00:26:59;-7.10;92.90
42095;DHT22;27753;55.724;37.612;2022-12-08T00:29:25;-7.00;92.90
42095;DHT22;27753;55.724;37.612;2022-12-08T00:31:51;-7.00;92.80
42095;DHT22;27753;55.724;37.612;2022-12-08T00:34:17;-7.00;92.80
42095;DHT22;27753;55.724;37.612;2022-12-08T00:36:43;-7.00;92.70
42095;DHT22;27753;55.724;37.612;2022-12-08T00:39:11;-7.00;92.80
42095;DHT22;27753;55.724;37.612;2022-12-08T00:41:37;-7.10;92.70
42095;DHT22;27753;55.724;37.612;2022-12-08T00:44:21;-7.10;92.70
42095;DHT22;27753;55.724;37.612;2022-12-08T00:46:47;-7.10;92.80
42095;DHT22;27753;55.724;37.612;2022-12-08T00:49:14;-7.10;92.80
42095;DHT22;27753;55.724;37.612;2022-12-08T00:51:40;-7.10;92.90
42095;DHT22;27753;55.724;37.612;2022-12-08T00:54:07;-7.10;92.90
42095;DHT22;27753;55.724;37.612;2022-12-08T00:56:33;-7.20;93.00
42095;DHT22;27753;55.724;37.612;2022-12-08T00:58:59;-7.10;93.00
42095;DHT22;27753;55.724;37.612;2022-12-08T01:01:28;-7.10;93.00
42095;DHT22;27753;55.724;37.612;2022-12-08T01:04:01;-7.00;93.10
42095;DHT22;27753;55.724;37.612;2022-12-08T01:06:29;-6.90;92.90
42095;DHT22;27753;55.724;37.612;2022-12-08T01:09:07;-6.90;92.70
42095;DHT22;27753;55.724;37.612;2022-12-08T01:11:36;-7.00;92.60
42095;DHT22;27753;55.724;37.612;2022-12-08T01:14:03;-7.00;92.60
42095;DHT22;27753;55.724;37.612;2022-12-08T01:16:31;-7.00;92.60
42095;DHT22;27753;55.724;37.612;2022-12-08T01:18:58;-7.10;92.60
42095;DHT22;27753;55.724;37.612;2022-12-08T01:21:25;-7.10;92.50
42095;DHT22;27753;55.724;37.612;2022-12-08T01:23:54;-7.20;92.50
42095;DHT22;27753;55.724;37.612;2022-12-08T01:26:23;-7.20;92.60
42095;DHT22;27753;55.724;37.612;2022-12-08T01:28:49;-7.20;92.70
42095;DHT22;27753;55.724;37.612;2022-12-08T01:31:17;-7.10;92.80
42095;DHT22;27753;55.724;37.612;2022-12-08T01:33:44;-7.20;92.70
42095;DHT22;27753;55.724;37.612;2022-12-08T01:36:22;-7.20;92.70
42095;DHT22;27753;55.724;37.612;2022-12-08T01:38:49;-7.20;92.80
42095;DHT22;27753;55.724;37.612;2022-12-08T01:41:18;-7.20;92.90
42095;DHT22;27753;55.724;37.612;2022-12-08T01:44:03;-7.10;93.00
42095;DHT22;27753;55.724;37.612;2022-12-08T01:46:47;-7.10;92.90
42095;DHT22;27753;55.724;37.612;2022-12-08T01:49:33;-7.20;92.80
42095;DHT22;27753;55.724;37.612;2022-12-08T01:52:28;-7.20;92.90
42095;DHT22;27753;55.724;37.612;2022-12-08T01:55:00;-7.20;93.10
42095;DHT22;27753;55.724;37.612;2022-12-08T01:57:31;-7.20;93.00
42095;DHT22;27753;55.724;37.612;2022-12-08T02:00:06;-7.20;93.00
42095;DHT22;27753;55.724;37.612;2022-12-08T02:02:48;-7.30;92.90
42095;DHT22;27753;55.724;37.612;2022-12-08T02:05:15;-7.40;93.00
42095;DHT22;27753;55.724;37.612;2022-12-08T02:07:42;-7.40;93.10
42095;DHT22;27753;55.724;37.612;2022-12-08T02:10:10;-7.40;93.20
42095;DHT22;27753;55.724;37.612;2022-12-08T02:12:36;-7.40;93.20
42095;DHT22;27753;55.724;37.612;2022-12-08T02:15:02;-7.40;93.10
42095;DHT22;27753;55.724;37.612;2022-12-08T02:23:23;-7.40;93.20
42095;DHT22;27753;55.724;37.612;2022-12-08T02:32:07;-7.40;93.60
42095;DHT22;27753;55.724;37.612;2022-12-08T02:37:37;-7.40;93.40
42095;DHT22;27753;55.724;37.612;2022-12-08T02:45:26;-7.30;93.60
42095;DHT22;27753;55.724;37.612;2022-12-08T02:47:53;-7.30;93.70
42095;DHT22;27753;55.724;37.612;2022-12-08T02:50:19;-7.30;93.70
42095;DHT22;27753;55.724;37.612;2022-12-08T02:52:46;-7.20;93.60
42095;DHT22;27753;55.724;37.612;2022-12-08T02:55:28;-7.30;93.50
42095;DHT22;27753;55.724;37.612;2022-12-08T02:58:09;-7.30;93.50
42095;DHT22;27753;55.724;37.612;2022-12-08T03:06:28;-7.40;93.60
42095;DHT22;27753;55.724;37.612;2022-12-08T03:11:54;-7.40;93.60
42095;DHT22;27753;55.724;37.612;2022-12-08T03:14:21;-7.30;93.60
42095;DHT22;27753;55.724;37.612;2022-12-08T03:16:49;-7.30;93.50
42095;DHT22;27753;55.724;37.612;2022-12-08T03:19:24;-7.40;93.40
42095;DHT22;27753;55.724;37.612;2022-12-08T03:21:56;-7.40;93.50
42095;DHT22;27753;55.724;37.612;2022-12-08T03:24:31;-7.30;93.60
42095;DHT22;27753;55.724;37.612;2022-12-08T03:27:03;-7.40;93.20
42095;DHT22;27753;55.724;37.612;2022-12-08T03:29:29;-7.40;93.30
42095;DHT22;27753;55.724;37.612;2022-12-08T03:31:57;-7.40;93.50
42095;DHT22;27753;55.724;37.612;2022-12-08T03:34:26;-7.40;93.40
42095;DHT22;27753;55.724;37.612;2022-12-08T03:36:53;-7.40;93.30
42095;DHT22;27753;55.724;37.612;2022-12-08T03:39:19;-7.40;93.30
42095;DHT22;27753;55.724;37.612;2022-12-08T03:41:46;-7.40;93.40
42095;DHT22;27753;55.724;37.612;2022-12-08T03:44:12;-7.40;93.40
42095;DHT22;27753;55.724;37.612;2022-12-08T03:46:38;-7.40;93.40
42095;DHT22;27753;55.724;37.612;2022-12-08T03:49:04;-7.40;93.50
42095;DHT22;27753;55.724;37.612;2022-12-08T03:51:30;-7.30;93.50
42095;DHT22;27753;55.724;37.612;2022-12-08T03:53:56;-7.30;93.40
42095;DHT22;27753;55.724;37.612;2022-12-08T03:56:30;-7.30;93.50
42095;DHT22;27753;55.724;37.612;2022-12-08T03:58:56;-7.30;93.50
42095;DHT22;27753;55.724;37.612;2022-12-08T04:01:22;-7.40;93.70
42095;DHT22;27753;55.724;37.612;2022-12-08T04:03:48;-7.30;93.70
42095;DHT22;27753;55.724;37.612;2022-12-08T04:06:15;-7.40;93.70
42095;DHT22;27753;55.724;37.612;2022-12-08T04:08:41;-7.50;93.80
42095;DHT22;27753;55.724;37.612;2022-12-08T04:11:08;-7.50;94.00
42095;DHT22;27753;55.724;37.612;2022-12-08T04:13:34;-7.50;94.10
42095;DHT22;27753;55.724;37.612;2022-12-08T04:16:01;-7.50;94.30
42095;DHT22;27753;55.724;37.612;2022-12-08T04:18:27;-7.50;94.20
42095;DHT22;27753;55.724;37.612;2022-12-08T04:20:53;-7.40;94.40
42095;DHT22;27753;55.724;37.612;2022-12-08T04:23:19;-7.40;94.30
42095;DHT22;27753;55.724;37.612;2022-12-08T04:25:45;-7.50;94.50
42095;DHT22;27753;55.724;37.612;2022-12-08T04:28:11;-7.60;94.50
42095;DHT22;27753;55.724;37.612;2022-12-08T04:30:38;-7.60;94.80
42095;DHT22;27753;55.724;37.612;2022-12-08T04:33:04;-7.60;95.10
42095;DHT22;27753;55.724;37.612;2022-12-08T04:35:31;-7.60;95.20
42095;DHT22;27753;55.724;37.612;2022-12-08T04:37:56;-7.60;95.20
42095;DHT22;27753;55.724;37.612;2022-12-08T04:40:23;-7.60;95.20
42095;DHT22;27753;55.724;37.612;2022-12-08T04:42:50;-7.60;95.60
42095;DHT22;27753;55.724;37.612;2022-12-08T04:45:16;-7.60;95.70
42095;DHT22;27753;55.724;37.612;2022-12-08T04:47:42;-7.50;95.80
42095;DHT22;27753;55.724;37.612;2022-12-08T04:50:08;-7.50;96.00
42095;DHT22;27753;55.724;37.612;2022-12-08T04:52:33;-7.50;96.00
42095;DHT22;27753;55.724;37.612;2022-12-08T04:54:59;-7.50;96.20
42095;DHT22;27753;55.724;37.612;2022-12-08T04:57:25;-7.50;96.20
42095;DHT22;27753;55.724;37.612;2022-12-08T04:59:51;-7.50;96.30
42095;DHT22;27753;55.724;37.612;2022-12-08T05:02:17;-7.50;96.40
42095;DHT22;27753;55.724;37.612;2022-12-08T05:04:44;-7.50;96.60
42095;DHT22;27753;55.724;37.612;2022-12-08T05:07:10;-7.50;96.60
42095;DHT22;27753;55.724;37.612;2022-12-08T05:09:36;-7.60;96.50
42095;DHT22;27753;55.724;37.612;2022-12-08T05:12:03;-7.60;96.70
42095;DHT22;27753;55.724;37.612;2022-12-08T05:14:29;-7.60;96.80
42095;DHT22;27753;55.724;37.612;2022-12-08T05:16:54;-7.60;96.70
42095;DHT22;27753;55.724;37.612;2022-12-08T05:19:20;-7.60;96.80
42095;DHT22;27753;55.724;37.612;2022-12-08T05:21:46;-7.60;96.80
42095;DHT22;27753;55.724;37.612;2022-12-08T05:24:12;-7.60;96.90
42095;DHT22;27753;55.724;37.612;2022-12-08T05:26:38;-7.60;97.10
42095;DHT22;27753;55.724;37.612;2022-12-08T05:29:04;-7.50;97.30
42095;DHT22;27753;55.724;37.612;2022-12-08T05:31:30;-7.50;97.30
42095;DHT22;27753;55.724;37.612;2022-12-08T05:33:59;-7.50;97.30
42095;DHT22;27753;55.724;37.612;2022-12-08T05:36:25;-7.40;97.50
42095;DHT22;27753;55.724;37.612;2022-12-08T05:38:51;-7.30;97.50
42095;DHT22;27753;55.724;37.612;2022-12-08T05:41:19;-7.30;97.50
42095;DHT22;27753;55.724;37.612;2022-12-08T05:43:45;-7.30;97.50
42095;DHT22;27753;55.724;37.612;2022-12-08T05:46:12;-7.30;97.50
42095;DHT22;27753;55.724;37.612;2022-12-08T05:48:38;-7.30;97.50
42095;DHT22;27753;55.724;37.612;2022-12-08T05:51:19;-7.40;97.10
42095;DHT22;27753;55.724;37.612;2022-12-08T05:53:46;-7.40;97.30
42095;DHT22;27753;55.724;37.612;2022-12-08T05:56:12;-7.40;97.20
42095;DHT22;27753;55.724;37.612;2022-12-08T05:58:38;-7.50;97.10
42095;DHT22;27753;55.724;37.612;2022-12-08T06:01:04;-7.40;97.20
42095;DHT22;27753;55.724;37.612;2022-12-08T06:03:31;-7.50;97.20
42095;DHT22;27753;55.724;37.612;2022-12-08T06:05:57;-7.50;97.20
42095;DHT22;27753;55.724;37.612;2022-12-08T06:08:23;-7.50;96.70
42095;DHT22;27753;55.724;37.612;2022-12-08T06:10:48;-7.50;97.10
42095;DHT22;27753;55.724;37.612;2022-12-08T06:13:14;-7.50;97.20
42095;DHT22;27753;55.724;37.612;2022-12-08T06:15:41;-7.40;97.30
42095;DHT22;27753;55.724;37.612;2022-12-08T06:18:08;-7.40;97.20
42095;DHT22;27753;55.724;37.612;2022-12-08T06:20:34;-7.40;97.20
42095;DHT22;27753;55.724;37.612;2022-12-08T06:23:00;-7.50;97.30
42095;DHT22;27753;55.724;37.612;2022-12-08T06:25:26;-7.40;97.40
42095;DHT22;27753;55.724;37.612;2022-12-08T06:27:52;-7.40;97.40
42095;DHT22;27753;55.724;37.612;2022-12-08T06:30:18;-7.40;97.40
42095;DHT22;27753;55.724;37.612;2022-12-08T06:32:44;-7.40;97.50
42095;DHT22;27753;55.724;37.612;2022-12-08T06:35:10;-7.40;97.40
42095;DHT22;27753;55.724;37.612;2022-12-08T06:37:36;-7.40;97.30
42095;DHT22;27753;55.724;37.612;2022-12-08T06:40:03;-7.40;97.30
42095;DHT22;27753;55.724;37.612;2022-12-08T06:42:29;-7.40;97.50
42095;DHT22;27753;55.724;37.612;2022-12-08T06:45:13;-7.30;97.80
42095;DHT22;27753;55.724;37.612;2022-12-08T06:47:40;-7.30;97.70
42095;DHT22;27753;55.724;37.612;2022-12-08T06:50:06;-7.30;97.50
42095;DHT22;27753;55.724;37.612;2022-12-08T06:52:33;-7.30;97.40
42095;DHT22;27753;55.724;37.612;2022-12-08T06:54:58;-7.30;97.60
42095;DHT22;27753;55.724;37.612;2022-12-08T06:57:24;-7.20;97.80
42095;DHT22;27753;55.724;37.612;2022-12-08T06:59:50;-7.20;97.70
42095;DHT22;27753;55.724;37.612;2022-12-08T07:02:16;-7.20;97.00
42095;DHT22;27753;55.724;37.612;2022-12-08T07:04:43;-7.30;97.00
42095;DHT22;27753;55.724;37.612;2022-12-08T07:07:08;-7.30;97.20
42095;DHT22;27753;55.724;37.612;2022-12-08T07:09:34;-7.20;97.20
42095;DHT22;27753;55.724;37.612;2022-12-08T07:12:02;-7.20;96.80
42095;DHT22;27753;55.724;37.612;2022-12-08T07:14:28;-7.30;96.80
42095;DHT22;27753;55.724;37.612;2022-12-08T07:16:54;-7.30;96.90
42095;DHT22;27753;55.724;37.612;2022-12-08T07:19:20;-7.30;96.70
42095;DHT22;27753;55.724;37.612;2022-12-08T07:21:46;-7.30;96.60
42095;DHT22;27753;55.724;37.612;2022-12-08T07:24:12;-7.30;96.70
42095;DHT22;27753;55.724;37.612;2022-12-08T07:26:39;-7.40;96.30
42095;DHT22;27753;55.724;37.612;2022-12-08T07:29:05;-7.40;96.70
42095;DHT22;27753;55.724;37.612;2022-12-08T07:31:31;-7.30;96.90
42095;DHT22;27753;55.724;37.612;2022-12-08T07:33:57;-7.20;96.90
42095;DHT22;27753;55.724;37.612;2022-12-08T07:36:23;-7.10;97.30
42095;DHT22;27753;55.724;37.612;2022-12-08T07:38:50;-7.10;96.50
42095;DHT22;27753;55.724;37.612;2022-12-08T07:41:24;-7.10;96.60
42095;DHT22;27753;55.724;37.612;2022-12-08T07:43:51;-7.10;96.90
42095;DHT22;27753;55.724;37.612;2022-12-08T07:46:19;-7.00;96.90
42095;DHT22;27753;55.724;37.612;2022-12-08T07:48:45;-7.00;96.80
42095;DHT22;27753;55.724;37.612;2022-12-08T07:51:12;-7.00;96.40
42095;DHT22;27753;55.724;37.612;2022-12-08T07:53:40;-6.90;96.70
42095;DHT22;27753;55.724;37.612;2022-12-08T07:56:08;-6.90;97.00
42095;DHT22;27753;55.724;37.612;2022-12-08T07:58:34;-6.80;97.00
42095;DHT22;27753;55.724;37.612;2022-12-08T08:01:00;-6.80;96.60
42095;DHT22;27753;55.724;37.612;2022-12-08T08:03:26;-6.80;96.80
42095;DHT22;27753;55.724;37.612;2022-12-08T08:06:00;-6.80;96.20
42095;DHT22;27753;55.724;37.612;2022-12-08T08:08:26;-6.80;96.20
42095;DHT22;27753;55.724;37.612;2022-12-08T08:10:52;-6.80;96.30
42095;DHT22;27753;55.724;37.612;2022-12-08T08:13:18;-6.80;96.20
42095;DHT22;27753;55.724;37.612;2022-12-08T08:15:44;-6.80;96.30
42095;DHT22;27753;55.724;37.612;2022-12-08T08:18:09;-6.70;96.60
42095;DHT22;27753;55.724;37.612;2022-12-08T08:20:35;-6.80;95.90
42095;DHT22;27753;55.724;37.612;2022-12-08T08:23:01;-6.70;96.30
42095;DHT22;27753;55.724;37.612;2022-12-08T08:25:27;-6.70;96.30
42095;DHT22;27753;55.724;37.612;2022-12-08T08:27:53;-6.70;95.80
42095;DHT22;27753;55.724;37.612;2022-12-08T08:30:19;-6.70;95.80
42095;DHT22;27753;55.724;37.612;2022-12-08T08:32:45;-6.70;95.70
42095;DHT22;27753;55.724;37.612;2022-12-08T08:35:14;-6.80;96.00
42095;DHT22;27753;55.724;37.612;2022-12-08T08:37:40;-6.70;95.80
42095;DHT22;27753;55.724;37.612;2022-12-08T08:40:07;-6.70;96.00
42095;DHT22;27753;55.724;37.612;2022-12-08T08:42:33;-6.60;96.00
42095;DHT22;27753;55.724;37.612;2022-12-08T08:44:59;-6.60;95.80
42095;DHT22;27753;55.724;37.612;2022-12-08T08:47:25;-6.70;95.40
42095;DHT22;27753;55.724;37.612;2022-12-08T08:49:54;-6.70;95.90
42095;DHT22;27753;55.724;37.612;2022-12-08T08:52:20;-6.60;96.20
42095;DHT22;27753;55.724;37.612;2022-12-08T08:54:46;-6.50;96.50
42095;DHT22;27753;55.724;37.612;2022-12-08T08:57:11;-6.40;96.30
42095;DHT22;27753;55.724;37.612;2022-12-08T08:59:37;-6.40;95.40
42095;DHT22;27753;55.724;37.612;2022-12-08T09:02:03;-6.60;95.10
42095;DHT22;27753;55.724;37.612;2022-12-08T09:04:29;-6.60;95.90
42095;DHT22;27753;55.724;37.612;2022-12-08T09:06:55;-6.50;96.30
42095;DHT22;27753;55.724;37.612;2022-12-08T09:09:23;-6.50;96.60
42095;DHT22;27753;55.724;37.612;2022-12-08T09:11:49;-6.40;96.60
42095;DHT22;27753;55.724;37.612;2022-12-08T09:14:15;-6.40;96.70
42095;DHT22;27753;55.724;37.612;2022-12-08T09:16:41;-6.30;96.70
42095;DHT22;27753;55.724;37.612;2022-12-08T09:19:08;-6.30;96.80
42095;DHT22;27753;55.724;37.612;2022-12-08T09:21:33;-6.40;96.40
42095;DHT22;27753;55.724;37.612;2022-12-08T09:23:59;-6.50;96.60
42095;DHT22;27753;55.724;37.612;2022-12-08T09:26:27;-6.60;96.80
42095;DHT22;27753;55.724;37.612;2022-12-08T09:28:53;-6.70;96.60
42095;DHT22;27753;55.724;37.612;2022-12-08T09:31:20;-6.60;96.90
42095;DHT22;27753;55.724;37.612;2022-12-08T09:33:47;-6.70;96.60
42095;DHT22;27753;55.724;37.612;2022-12-08T09:36:13;-6.70;97.00
42095;DHT22;27753;55.724;37.612;2022-12-08T09:38:40;-6.60;97.20
42095;DHT22;27753;55.724;37.612;2022-12-08T09:46:42;-6.50;97.60
42095;DHT22;27753;55.724;37.612;2022-12-08T09:49:15;-6.50;97.20
42095;DHT22;27753;55.724;37.612;2022-12-08T09:51:44;-6.50;97.10
42095;DHT22;27753;55.724;37.612;2022-12-08T09:54:32;-6.50;96.80
42095;DHT22;27753;55.724;37.612;2022-12-08T09:57:02;-6.60;97.20
42095;DHT22;27753;55.724;37.612;2022-12-08T09:59:32;-6.60;96.80
42095;DHT22;27753;55.724;37.612;2022-12-08T10:01:59;-6.60;96.90
42095;DHT22;27753;55.724;37.612;2022-12-08T10:09:40;-6.50;97.30
42095;DHT22;27753;55.724;37.612;2022-12-08T10:15:42;-6.50;97.60
42095;DHT22;27753;55.724;37.612;2022-12-08T10:18:29;-6.50;97.90
42095;DHT22;27753;55.724;37.612;2022-12-08T10:21:16;-6.50;98.10
42095;DHT22;27753;55.724;37.612;2022-12-08T10:23:54;-6.40;98.40
42095;DHT22;27753;55.724;37.612;2022-12-08T10:26:23;-6.40;98.40
42095;DHT22;27753;55.724;37.612;2022-12-08T10:28:49;-6.50;98.50
42095;DHT22;27753;55.724;37.612;2022-12-08T10:31:24;-6.50;98.60
42095;DHT22;27753;55.724;37.612;2022-12-08T10:34:00;-6.60;98.80
42095;DHT22;27753;55.724;37.612;2022-12-08T10:36:55;-6.60;99.00
42095;DHT22;27753;55.724;37.612;2022-12-08T10:39:36;-6.50;99.40
42095;DHT22;27753;55.724;37.612;2022-12-08T10:42:16;-6.40;99.40
42095;DHT22;27753;55.724;37.612;2022-12-08T10:47:41;-6.40;99.30
42095;DHT22;27753;55.724;37.612;2022-12-08T10:50:27;-6.40;99.30
42095;DHT22;27753;55.724;37.612;2022-12-08T10:53:14;-6.30;99.40
42095;DHT22;27753;55.724;37.612;2022-12-08T10:55:49;-6.40;98.60
42095;DHT22;27753;55.724;37.612;2022-12-08T11:00:54;-6.40;98.90
42095;DHT22;27753;55.724;37.612;2022-12-08T11:03:28;-6.40;99.10
42095;DHT22;27753;55.724;37.612;2022-12-08T11:05:56;-6.30;99.40
42095;DHT22;27753;55.724;37.612;2022-12-08T11:08:24;-6.30;99.20
42095;DHT22;27753;55.724;37.612;2022-12-08T11:10:50;-6.30;99.20
42095;DHT22;27753;55.724;37.612;2022-12-08T11:13:22;-6.30;99.20
42095;DHT22;27753;55.724;37.612;2022-12-08T11:15:53;-6.20;99.50
42095;DHT22;27753;55.724;37.612;2022-12-08T11:18:38;-6.10;99.60
42095;DHT22;27753;55.724;37.612;2022-12-08T11:21:12;-6.10;99.40
42095;DHT22;27753;55.724;37.612;2022-12-08T11:23:41;-6.00;99.50
42095;DHT22;27753;55.724;37.612;2022-12-08T11:26:28;-6.00;99.30
42095;DHT22;27753;55.724;37.612;2022-12-08T11:28:56;-6.00;99.10
42095;DHT22;27753;55.724;37.612;2022-12-08T11:31:28;-6.00;99.20
42095;DHT22;27753;55.724;37.612;2022-12-08T11:33:55;-6.00;99.10
42095;DHT22;27753;55.724;37.612;2022-12-08T11:36:24;-6.00;99.10
42095;DHT22;27753;55.724;37.612;2022-12-08T11:38:56;-6.00;98.90
42095;DHT22;27753;55.724;37.612;2022-12-08T11:41:29;-6.00;98.90
42095;DHT22;27753;55.724;37.612;2022-12-08T11:46:58;-6.10;98.60
42095;DHT22;27753;55.724;37.612;2022-12-08T11:49:34;-6.10;98.60
42095;DHT22;27753;55.724;37.612;2022-12-08T11:55:18;-6.10;99.10
42095;DHT22;27753;55.724;37.612;2022-12-08T11:57:49;-6.10;99.10
42095;DHT22;27753;55.724;37.612;2022-12-08T12:00:19;-6.10;99.10
42095;DHT22;27753;55.724;37.612;2022-12-08T12:02:49;-6.00;99.30
42095;DHT22;27753;55.724;37.612;2022-12-08T12:05:44;-6.00;99.30
42095;DHT22;27753;55.724;37.612;2022-12-08T12:17:03;-5.90;99.20
42095;DHT22;27753;55.724;37.612;2022-12-08T12:19:34;-6.00;99.10
42095;DHT22;27753;55.724;37.612;2022-12-08T12:22:14;-6.00;99.30
42095;DHT22;27753;55.724;37.612;2022-12-08T12:24:43;-6.00;99.40
42095;DHT22;27753;55.724;37.612;2022-12-08T12:29:46;-5.90;99.50
42095;DHT22;27753;55.724;37.612;2022-12-08T12:32:17;-5.90;99.20
42095;DHT22;27753;55.724;37.612;2022-12-08T12:34:49;-6.00;99.30
42095;DHT22;27753;55.724;37.612;2022-12-08T12:42:42;-5.90;99.70
42095;DHT22;27753;55.724;37.612;2022-12-08T12:48:11;-5.80;99.80
42095;DHT22;27753;55.724;37.612;2022-12-08T12:50:43;-5.80;99.90
42095;DHT22;27753;55.724;37.612;2022-12-08T12:56:01;-5.80;99.20
42095;DHT22;27753;55.724;37.612;2022-12-08T13:03:51;-5.90;99.40
42095;DHT22;27753;55.724;37.612;2022-12-08T13:09:04;-5.90;99.40
42095;DHT22;27753;55.724;37.612;2022-12-08T13:11:49;-5.90;99.50
42095;DHT22;27753;55.724;37.612;2022-12-08T13:14:28;-5.80;99.80
42095;DHT22;27753;55.724;37.612;2022-12-08T13:16:59;-5.80;99.70
42095;DHT22;27753;55.724;37.612;2022-12-08T13:19:31;-5.80;99.60
42095;DHT22;27753;55.724;37.612;2022-12-08T13:22:00;-5.80;99.60
42095;DHT22;27753;55.724;37.612;2022-12-08T13:24:30;-5.80;99.60
42095;DHT22;27753;55.724;37.612;2022-12-08T13:29:32;-5.90;99.60
42095;DHT22;27753;55.724;37.612;2022-12-08T13:34:56;-5.80;99.70
42095;DHT22;27753;55.724;37.612;2022-12-08T13:37:34;-5.80;99.90
42095;DHT22;27753;55.724;37.612;2022-12-08T13:43:05;-5.80;99.70
42095;DHT22;27753;55.724;37.612;2022-12-08T13:45:29;-5.70;99.90
42095;DHT22;27753;55.724;37.612;2022-12-08T13:47:59;-5.70;99.70
42095;DHT22;27753;55.724;37.612;2022-12-08T13:51:16;-5.70;99.60
42095;DHT22;27753;55.724;37.612;2022-12-08T13:53:55;-5.70;99.50
42095;DHT22;27753;55.724;37.612;2022-12-08T13:56:23;-5.70;99.80
42095;DHT22;27753;55.724;37.612;2022-12-08T13:58:50;-5.60;99.90
42095;DHT22;27753;55.724;37.612;2022-12-08T14:01:19;-5.60;99.90
42095;DHT22;27753;55.724;37.612;2022-12-08T14:03:55;-5.50;99.90
42095;DHT22;27753;55.724;37.612;2022-12-08T14:06:28;-5.50;99.90
42095;DHT22;27753;55.724;37.612;2022-12-08T14:08:57;-5.40;99.90
42095;DHT22;27753;55.724;37.612;2022-12-08T14:11:35;-5.40;99.90
42095;DHT22;27753;55.724;37.612;2022-12-08T14:16:54;-5.40;99.90
42095;DHT22;27753;55.724;37.612;2022-12-08T14:19:23;-5.40;99.90
42095;DHT22;27753;55.724;37.612;2022-12-08T14:21:56;-5.40;99.90
42095;DHT22;27753;55.724;37.612;2022-12-08T14:24:23;-5.40;99.40
42095;DHT22;27753;55.724;37.612;2022-12-08T14:26:53;-5.50;99.60
42095;DHT22;27753;55.724;37.612;2022-12-08T14:29:49;-5.50;99.50
42095;DHT22;27753;55.724;37.612;2022-12-08T14:35:11;-5.40;99.60
42095;DHT22;27753;55.724;37.612;2022-12-08T14:37:41;-5.50;99.50
42095;DHT22;27753;55.724;37.612;2022-12-08T14:43:09;-5.60;99.60
42095;DHT22;27753;55.724;37.612;2022-12-08T14:54:08;-5.40;99.90
42095;DHT22;27753;55.724;37.612;2022-12-08T14:59:10;-5.50;99.80
42095;DHT22;27753;55.724;37.612;2022-12-08T15:01:37;-5.50;99.70
42095;DHT22;27753;55.724;37.612;2022-12-08T15:07:15;-5.40;99.90
42095;DHT22;27753;55.724;37.612;2022-12-08T15:09:43;-5.30;99.90
42095;DHT22;27753;55.724;37.612;2022-12-08T15:14:53;-5.20;99.90
42095;DHT22;27753;55.724;37.612;2022-12-08T15:17:48;-5.30;99.90
42095;DHT22;27753;55.724;37.612;2022-12-08T15:20:29;-5.30;99.90
42095;DHT22;27753;55.724;37.612;2022-12-08T15:22:56;-5.20;99.90
42095;DHT22;27753;55.724;37.612;2022-12-08T15:25:23;-5.20;99.60
42095;DHT22;27753;55.724;37.612;2022-12-08T15:27:50;-5.30;99.60
42095;DHT22;27753;55.724;37.612;2022-12-08T15:30:18;-5.30;99.80
42095;DHT22;27753;55.724;37.612;2022-12-08T15:32:44;-5.20;99.90
42095;DHT22;27753;55.724;37.612;2022-12-08T15:35:15;-5.20;99.90
42095;DHT22;27753;55.724;37.612;2022-12-08T15:37:41;-5.20;99.90
42095;DHT22;27753;55.724;37.612;2022-12-08T15:40:16;-5.10;99.90
42095;DHT22;27753;55.724;37.612;2022-12-08T15:42:42;-5.20;99.90
42095;DHT22;27753;55.724;37.612;2022-12-08T15:45:15;-5.20;99.90
42095;DHT22;27753;55.724;37.612;2022-12-08T15:47:42;-5.20;99.90
42095;DHT22;27753;55.724;37.612;2022-12-08T15:50:15;-5.10;99.90
42095;DHT22;27753;55.724;37.612;2022-12-08T15:52:44;-5.00;99.90
42095;DHT22;27753;55.724;37.612;2022-12-08T15:55:18;-5.00;99.90
42095;DHT22;27753;55.724;37.612;2022-12-08T15:57:53;-4.90;99.90
42095;DHT22;27753;55.724;37.612;2022-12-08T16:02:49;-4.90;99.90
42095;DHT22;27753;55.724;37.612;2022-12-08T16:05:15;-4.90;99.90
42095;DHT22;27753;55.724;37.612;2022-12-08T16:07:41;-4.90;99.90
42095;DHT22;27753;55.724;37.612;2022-12-08T16:10:14;-5.00;99.90
42095;DHT22;27753;55.724;37.612;2022-12-08T16:12:41;-4.90;99.90
42095;DHT22;27753;55.724;37.612;2022-12-08T16:15:25;-4.90;99.90
42095;DHT22;27753;55.724;37.612;2022-12-08T16:17:54;-4.80;99.90
42095;DHT22;27753;55.724;37.612;2022-12-08T16:20:22;-4.80;99.90
42095;DHT22;27753;55.724;37.612;2022-12-08T16:22:48;-4.80;99.90
42095;DHT22;27753;55.724;37.612;2022-12-08T16:25:14;-4.80;99.90
42095;DHT22;27753;55.724;37.612;2022-12-08T16:27:40;-4.90;99.90
42095;DHT22;27753;55.724;37.612;2022-12-08T16:30:16;-4.90;99.90
42095;DHT22;27753;55.724;37.612;2022-12-08T16:32:43;-4.90;99.90
42095;DHT22;27753;55.724;37.612;2022-12-08T16:35:11;-4.90;99.90
42095;DHT22;27753;55.724;37.612;2022-12-08T16:37:37;-4.90;99.90
42095;DHT22;27753;55.724;37.612;2022-12-08T16:40:03;-4.90;99.90
42095;DHT22;27753;55.724;37.612;2022-12-08T16:42:31;-4.90;99.90
42095;DHT22;27753;55.724;37.612;2022-12-08T16:45:24;-4.90;99.90
42095;DHT22;27753;55.724;37.612;2022-12-08T16:47:55;-4.90;99.90
42095;DHT22;27753;55.724;37.612;2022-12-08T16:50:34;-4.80;99.90
42095;DHT22;27753;55.724;37.612;2022-12-08T16:53:05;-4.80;99.90
42095;DHT22;27753;55.724;37.612;2022-12-08T16:55:32;-4.80;99.90
42095;DHT22;27753;55.724;37.612;2022-12-08T16:57:58;-4.80;99.90
42095;DHT22;27753;55.724;37.612;2022-12-08T17:00:26;-4.70;99.90
42095;DHT22;27753;55.724;37.612;2022-12-08T17:02:53;-4.70;99.90
42095;DHT22;27753;55.724;37.612;2022-12-08T17:05:21;-4.70;99.90
42095;DHT22;27753;55.724;37.612;2022-12-08T17:07:49;-4.70;99.90
42095;DHT22;27753;55.724;37.612;2022-12-08T17:10:25;-4.60;99.90
42095;DHT22;27753;55.724;37.612;2022-12-08T17:12:52;-4.50;99.90
42095;DHT22;27753;55.724;37.612;2022-12-08T17:15:21;-4.50;99.90
42095;DHT22;27753;55.724;37.612;2022-12-08T17:17:48;-4.40;99.90
42095;DHT22;27753;55.724;37.612;2022-12-08T17:20:17;-4.40;99.90
42095;DHT22;27753;55.724;37.612;2022-12-08T17:22:44;-4.50;99.90
42095;DHT22;27753;55.724;37.612;2022-12-08T17:25:10;-4.50;99.90
42095;DHT22;27753;55.724;37.612;2022-12-08T17:27:36;-4.50;99.90
42095;DHT22;27753;55.724;37.612;2022-12-08T17:30:04;-4.60;99.90
42095;DHT22;27753;55.724;37.612;2022-12-08T17:32:30;-4.60;99.90
42095;DHT22;27753;55.724;37.612;2022-12-08T17:34:56;-4.60;99.90
42095;DHT22;27753;55.724;37.612;2022-12-08T17:37:25;-4.60;99.90